< < Back
Terminal Aerodrome Forecast


Current Version              Previous Versions:   1  2  3  4  5  6  7  8  9  

Terminal Aerodrome Forecast

783
FTUS42 KTAE 182300
TAFTLH
TAF
KTLH 182320Z 1900/1924 VRB02KT P6SM SCT100 BKN250
     FM191500 03005KT P6SM BKN060 OVC100=

Latest METAR

882
SAUS80 KWBC 191100
MTRTLH
METAR KTLH 191053Z COR 35003KT 10SM SCT250 07/04 A3012 RMK AO2 SLP200
FIRST AUGMENTED OBS T00720039 $


USA.gov is the U.S. government's official web portal to all federal, state and local government web resources and services.